Time;durP1;ratioP1;P1;durP2;ratioP2;P2;SDS_P1;SDS_P2;PMS_P1;PMS_P2;Temp;Humidity;BMP_temperature;BMP_pressure;BME280_temperature;BME280_humidity;BME280_pressure;Samples;Min_cycle;Max_cycle;Signal;HPM_P1;HPM_P2
2022/12/11 00:01:24;;;;;;;;;;;0.10;99.90;;;;;;5094426;28;19982;-40
2022/12/11 00:03:50;;;;;;;;;;;0.10;99.90;;;;;;5092671;28;19966;-41
2022/12/11 00:06:17;;;;;;;;;;;0.10;99.90;;;;;;5094447;28;19912;-39
2022/12/11 00:08:43;;;;;;;;;;;0.10;99.90;;;;;;5121959;27;20040;-39
2022/12/11 00:11:10;;;;;;;;;;;0.10;99.90;;;;;;5109968;27;20022;-41
2022/12/11 00:13:36;;;;;;;;;;;0.20;99.90;;;;;;5124460;27;20025;-40
2022/12/11 00:16:01;;;;;;;;;;;0.20;99.90;;;;;;5134176;27;20303;-40
2022/12/11 00:18:26;;;;;;;;;;;0.20;99.90;;;;;;5133494;27;19961;-40
2022/12/11 00:20:52;;;;;;;;;;;0.20;99.90;;;;;;5134189;27;19911;-42
2022/12/11 00:23:18;;;;;;;;;;;0.30;99.90;;;;;;5134273;27;19911;-39
2022/12/11 00:25:44;;;;;;;;;;;0.30;99.90;;;;;;5111684;27;20073;-40
2022/12/11 00:28:14;;;;;;;;;;;0.30;99.90;;;;;;5093108;28;19999;-39
2022/12/11 00:30:43;;;;;;;;;;;0.30;99.90;;;;;;5092987;28;19916;-40
2022/12/11 00:33:09;;;;;;;;;;;0.40;99.90;;;;;;5092610;28;19912;-39
2022/12/11 00:35:38;;;;;;;;;;;0.40;99.90;;;;;;5093068;28;19960;-39
2022/12/11 00:38:04;;;;;;;;;;;0.40;99.90;;;;;;5092773;28;19919;-39
2022/12/11 00:40:32;;;;;;;;;;;0.40;99.90;;;;;;5092651;28;20279;-40
2022/12/11 00:42:57;;;;;;;;;;;0.40;99.90;;;;;;5092882;28;20311;-40
2022/12/11 00:45:23;;;;;;;;;;;0.40;99.90;;;;;;5092275;28;19947;-39
2022/12/11 00:47:48;;;;;;;;;;;0.40;99.90;;;;;;5108283;28;19915;-38
2022/12/11 00:50:14;;;;;;;;;;;0.40;99.90;;;;;;5112759;28;19923;-39
2022/12/11 00:52:39;;;;;;;;;;;0.50;99.90;;;;;;5094098;28;20002;-39
2022/12/11 00:55:05;;;;;;;;;;;0.40;99.90;;;;;;5092927;28;19952;-40
2022/12/11 00:57:30;;;;;;;;;;;0.40;99.90;;;;;;5092568;28;19912;-40
2022/12/11 00:59:56;;;;;;;;;;;0.50;99.90;;;;;;5107132;28;19957;-41
2022/12/11 01:02:21;;;;;;;;;;;0.50;99.90;;;;;;5112761;28;20389;-40
2022/12/11 01:04:47;;;;;;;;;;;0.50;99.90;;;;;;5103719;28;19912;-41
2022/12/11 01:07:12;;;;;;;;;;;0.50;99.90;;;;;;5106252;28;19978;-39
2022/12/11 01:12:22;;;;;;;;;;;0.50;99.90;;;;;;5132544;27;20371;-39
2022/12/11 01:14:47;;;;;;;;;;;0.50;99.90;;;;;;5112172;28;20378;-40
2022/12/11 01:17:13;;;;;;;;;;;0.50;99.90;;;;;;5093937;28;19995;-41
2022/12/11 01:19:38;;;;;;;;;;;0.60;99.90;;;;;;5092709;28;19955;-40
2022/12/11 01:22:04;;;;;;;;;;;0.50;99.90;;;;;;5091651;28;19990;-40
2022/12/11 01:24:29;;;;;;;;;;;0.60;99.90;;;;;;5092692;28;20393;-39
2022/12/11 01:26:55;;;;;;;;;;;0.60;99.90;;;;;;5112856;28;19908;-39
2022/12/11 01:29:20;;;;;;;;;;;0.60;99.90;;;;;;5112028;28;20029;-41
2022/12/11 01:31:46;;;;;;;;;;;0.60;99.90;;;;;;5112690;28;19961;-39
2022/12/11 01:34:11;;;;;;;;;;;0.60;99.90;;;;;;5112797;28;19911;-39
2022/12/11 01:36:37;;;;;;;;;;;0.60;99.90;;;;;;5112046;28;20045;-39
2022/12/11 01:39:02;;;;;;;;;;;0.60;99.90;;;;;;5112753;28;19919;-39
2022/12/11 01:41:28;;;;;;;;;;;0.60;99.90;;;;;;5102174;28;19919;-39
2022/12/11 01:44:13;;;;;;;;;;;0.60;99.90;;;;;;5103942;28;20309;-39
2022/12/11 01:46:39;;;;;;;;;;;0.60;99.90;;;;;;5063275;28;19916;-40
2022/12/11 01:49:07;;;;;;;;;;;0.60;99.90;;;;;;5091427;28;19909;-39
2022/12/11 01:51:36;;;;;;;;;;;0.60;99.90;;;;;;5092331;28;19912;-40
2022/12/11 01:54:05;;;;;;;;;;;0.70;99.90;;;;;;5092259;28;19930;-38
2022/12/11 01:56:33;;;;;;;;;;;0.70;99.90;;;;;;5091356;28;19918;-39
2022/12/11 01:59:01;;;;;;;;;;;0.70;99.90;;;;;;5092246;28;19951;-39
2022/12/11 02:01:30;;;;;;;;;;;0.70;99.90;;;;;;5093173;28;20382;-40
2022/12/11 02:03:56;;;;;;;;;;;0.70;99.90;;;;;;5091234;28;19937;-40
2022/12/11 02:06:47;;;;;;;;;;;0.70;99.90;;;;;;5100189;28;19931;-40
2022/12/11 02:09:17;;;;;;;;;;;0.70;99.90;;;;;;5088134;28;19923;-39
2022/12/11 02:11:52;;;;;;;;;;;0.70;99.90;;;;;;5095336;28;19926;-39
2022/12/11 02:14:37;;;;;;;;;;;0.70;99.90;;;;;;5095751;28;20268;-39
2022/12/11 02:17:10;;;;;;;;;;;0.80;99.90;;;;;;5108771;28;19912;-39
2022/12/11 02:19:36;;;;;;;;;;;0.80;99.90;;;;;;5115710;28;20387;-39
2022/12/11 02:22:05;;;;;;;;;;;0.80;99.90;;;;;;5115598;28;19911;-40
2022/12/11 02:24:31;;;;;;;;;;;0.80;99.90;;;;;;5105664;28;20359;-40
2022/12/11 02:27:05;;;;;;;;;;;0.80;99.90;;;;;;5129050;27;19954;-39
2022/12/11 02:29:35;;;;;;;;;;;0.80;99.90;;;;;;5132062;27;19916;-39
2022/12/11 02:32:13;;;;;;;;;;;0.80;99.90;;;;;;5114921;28;19954;-39
2022/12/11 02:34:42;;;;;;;;;;;0.80;99.90;;;;;;5115873;28;19954;-39
2022/12/11 02:37:13;;;;;;;;;;;0.80;99.90;;;;;;5115693;28;19999;-39
2022/12/11 02:39:40;;;;;;;;;;;0.80;99.90;;;;;;5114968;28;19915;-41
2022/12/11 02:42:06;;;;;;;;;;;0.90;99.90;;;;;;5123250;27;20028;-43
2022/12/11 02:44:32;;;;;;;;;;;0.80;99.90;;;;;;5136075;27;20409;-43
2022/12/11 02:46:58;;;;;;;;;;;0.90;99.90;;;;;;5135219;27;19911;-39
2022/12/11 02:49:25;;;;;;;;;;;0.90;99.90;;;;;;5135937;27;19920;-39
2022/12/11 02:51:51;;;;;;;;;;;0.90;99.90;;;;;;5135275;27;19994;-40
2022/12/11 02:54:19;;;;;;;;;;;0.90;99.90;;;;;;5129879;27;20034;-39
2022/12/11 02:57:05;;;;;;;;;;;0.90;99.90;;;;;;5115349;28;20011;-40
2022/12/11 02:59:35;;;;;;;;;;;0.90;99.90;;;;;;5113851;28;20255;-39
2022/12/11 03:02:01;;;;;;;;;;;0.90;99.90;;;;;;5109147;28;19920;-42
2022/12/11 03:04:27;;;;;;;;;;;0.90;99.90;;;;;;5094908;28;19908;-41
2022/12/11 03:06:54;;;;;;;;;;;0.90;99.90;;;;;;5093752;28;19938;-39
2022/12/11 03:09:19;;;;;;;;;;;0.90;99.90;;;;;;5110415;28;19911;-39
2022/12/11 03:11:45;;;;;;;;;;;0.90;99.90;;;;;;5099619;28;19920;-39
2022/12/11 03:14:13;;;;;;;;;;;0.90;99.90;;;;;;5093094;28;21564;-39
2022/12/11 03:16:46;;;;;;;;;;;0.90;99.90;;;;;;5094423;28;19970;-39
2022/12/11 03:19:23;;;;;;;;;;;1.00;99.90;;;;;;5094496;28;19998;-39
2022/12/11 03:21:52;;;;;;;;;;;0.90;99.90;;;;;;5103544;28;20375;-41
2022/12/11 03:24:17;;;;;;;;;;;1.00;99.90;;;;;;5094313;28;19919;-40
2022/12/11 03:26:45;;;;;;;;;;;1.00;99.90;;;;;;5094276;28;19912;-41
2022/12/11 03:29:15;;;;;;;;;;;1.00;99.90;;;;;;5110415;28;19912;-41
2022/12/11 03:31:53;;;;;;;;;;;1.00;99.90;;;;;;5094223;28;19915;-41
2022/12/11 03:34:21;;;;;;;;;;;1.00;99.90;;;;;;5093516;28;19908;-39
2022/12/11 03:36:49;;;;;;;;;;;1.00;99.90;;;;;;5093996;28;19979;-40
2022/12/11 03:39:17;;;;;;;;;;;1.00;99.90;;;;;;5104415;28;19912;-40
2022/12/11 03:41:44;;;;;;;;;;;1.00;99.90;;;;;;5107177;28;19920;-41
2022/12/11 03:44:10;;;;;;;;;;;1.00;99.90;;;;;;5094110;28;19908;-41
2022/12/11 03:46:37;;;;;;;;;;;1.00;99.90;;;;;;5098126;28;20006;-45
2022/12/11 03:49:06;;;;;;;;;;;1.10;99.90;;;;;;5113424;28;20358;-40
2022/12/11 03:51:33;;;;;;;;;;;1.10;99.90;;;;;;5114192;28;19916;-39
2022/12/11 03:53:59;;;;;;;;;;;1.00;99.90;;;;;;5113810;28;19908;-42
2022/12/11 03:56:25;;;;;;;;;;;1.10;99.90;;;;;;5092929;28;19912;-39
2022/12/11 03:58:51;;;;;;;;;;;1.00;99.90;;;;;;5093779;28;19908;-40
2022/12/11 04:01:16;;;;;;;;;;;1.10;99.90;;;;;;5094722;28;19919;-41
2022/12/11 04:03:42;;;;;;;;;;;1.10;99.90;;;;;;5092807;28;19935;-40
2022/12/11 04:06:07;;;;;;;;;;;1.10;99.90;;;;;;5098402;28;20016;-40
2022/12/11 04:08:32;;;;;;;;;;;1.10;99.90;;;;;;5104149;28;20291;-40
2022/12/11 04:13:42;;;;;;;;;;;1.10;99.90;;;;;;5113594;28;19923;-41
2022/12/11 04:16:08;;;;;;;;;;;1.10;99.90;;;;;;5112775;28;19911;-45
2022/12/11 04:24:15;;;;;;;;;;;1.10;99.90;;;;;;5103028;27;19919;-40
2022/12/11 04:26:41;;;;;;;;;;;1.10;99.90;;;;;;5119726;27;19915;-42
2022/12/11 04:29:07;;;;;;;;;;;1.10;99.90;;;;;;5127588;27;19908;-41
2022/12/11 04:31:32;;;;;;;;;;;1.10;99.90;;;;;;5133263;27;19922;-41
2022/12/11 04:33:58;;;;;;;;;;;1.10;99.90;;;;;;5133744;27;20031;-40
2022/12/11 04:36:23;;;;;;;;;;;1.10;99.90;;;;;;5134115;27;19930;-41
2022/12/11 04:38:48;;;;;;;;;;;1.10;99.90;;;;;;5114763;27;19953;-39
2022/12/11 04:41:15;;;;;;;;;;;1.10;99.90;;;;;;5120098;27;19908;-42
2022/12/11 04:43:40;;;;;;;;;;;1.10;99.90;;;;;;5113307;28;19914;-39
2022/12/11 04:46:07;;;;;;;;;;;1.10;99.90;;;;;;5112614;28;19912;-40
2022/12/11 04:48:33;;;;;;;;;;;1.10;99.90;;;;;;5113347;28;19998;-39
2022/12/11 04:50:58;;;;;;;;;;;1.10;99.90;;;;;;5113163;28;20002;-39
2022/12/11 04:53:24;;;;;;;;;;;1.10;99.90;;;;;;5101624;28;19952;-38
2022/12/11 04:55:50;;;;;;;;;;;1.10;99.90;;;;;;5092650;28;19912;-44
2022/12/11 04:58:16;;;;;;;;;;;1.10;99.90;;;;;;5092897;28;20291;-39
2022/12/11 05:00:41;;;;;;;;;;;1.10;99.90;;;;;;5095600;28;19911;-39
2022/12/11 05:03:07;;;;;;;;;;;1.10;99.90;;;;;;5112898;28;19918;-40
2022/12/11 05:05:32;;;;;;;;;;;1.10;99.90;;;;;;5112147;28;19999;-41
2022/12/11 05:07:58;;;;;;;;;;;1.10;99.90;;;;;;5113118;28;20006;-40
2022/12/11 05:10:23;;;;;;;;;;;1.10;99.90;;;;;;5111439;28;19926;-39
2022/12/11 05:12:49;;;;;;;;;;;1.10;99.90;;;;;;5101344;28;19920;-40
2022/12/11 05:15:14;;;;;;;;;;;1.10;99.90;;;;;;5102134;28;20273;-38
2022/12/11 05:17:40;;;;;;;;;;;1.10;99.90;;;;;;5112622;28;19919;-39
2022/12/11 05:20:05;;;;;;;;;;;1.10;99.90;;;;;;5112317;28;20150;-40
2022/12/11 05:22:31;;;;;;;;;;;1.10;99.90;;;;;;5110785;28;19934;-39
2022/12/11 05:24:56;;;;;;;;;;;1.10;99.90;;;;;;5112502;28;19912;-39
2022/12/11 05:27:22;;;;;;;;;;;1.10;99.90;;;;;;5111835;28;20297;-39
2022/12/11 05:29:47;;;;;;;;;;;1.10;99.90;;;;;;5112795;28;19998;-40
2022/12/11 05:32:13;;;;;;;;;;;1.10;99.90;;;;;;5112549;28;19915;-40
2022/12/11 05:34:39;;;;;;;;;;;1.00;99.90;;;;;;5112123;28;19908;-40
2022/12/11 05:37:04;;;;;;;;;;;1.10;99.90;;;;;;5112383;28;19919;-41
2022/12/11 05:39:30;;;;;;;;;;;1.10;99.90;;;;;;5112753;28;19911;-39
2022/12/11 05:41:55;;;;;;;;;;;1.10;99.90;;;;;;5111658;28;19919;-39
2022/12/11 05:44:20;;;;;;;;;;;1.10;99.90;;;;;;5097513;28;20362;-41
2022/12/11 05:46:46;;;;;;;;;;;1.10;99.90;;;;;;5102159;28;19918;-43
2022/12/11 05:49:12;;;;;;;;;;;1.10;99.90;;;;;;5115975;28;19982;-39
2022/12/11 05:51:38;;;;;;;;;;;1.10;99.90;;;;;;5116333;28;19915;-40
2022/12/11 05:54:04;;;;;;;;;;;1.10;99.90;;;;;;5107710;28;19912;-39
2022/12/11 05:56:31;;;;;;;;;;;1.10;99.90;;;;;;5095091;28;20271;-40
2022/12/11 05:58:57;;;;;;;;;;;1.10;99.90;;;;;;5095671;28;19908;-39
2022/12/11 06:01:24;;;;;;;;;;;1.10;99.90;;;;;;5097019;28;20354;-40
2022/12/11 06:03:49;;;;;;;;;;;1.10;99.90;;;;;;5096172;28;20287;-40
2022/12/11 06:06:15;;;;;;;;;;;1.20;99.90;;;;;;5096172;28;20379;-40
2022/12/11 06:08:41;;;;;;;;;;;1.10;99.90;;;;;;5105117;28;19981;-42
2022/12/11 06:11:07;;;;;;;;;;;1.20;99.90;;;;;;5111048;28;19920;-39
2022/12/11 06:13:33;;;;;;;;;;;1.10;99.90;;;;;;5103414;28;20342;-41
2022/12/11 06:15:59;;;;;;;;;;;1.20;99.90;;;;;;5114863;28;20320;-41
2022/12/11 06:18:24;;;;;;;;;;;1.20;99.90;;;;;;5115714;28;19919;-40
2022/12/11 06:20:50;;;;;;;;;;;1.10;99.90;;;;;;5115713;28;19912;-39
2022/12/11 06:23:15;;;;;;;;;;;1.10;99.90;;;;;;5103960;28;20301;-39
2022/12/11 06:25:41;;;;;;;;;;;1.10;99.90;;;;;;5127272;27;19912;-42
2022/12/11 06:28:06;;;;;;;;;;;1.20;99.90;;;;;;5120557;27;19918;-42
2022/12/11 06:30:32;;;;;;;;;;;1.10;99.90;;;;;;5135614;27;19926;-39
2022/12/11 06:32:58;;;;;;;;;;;1.10;99.90;;;;;;5136330;27;19908;-40
2022/12/11 06:35:23;;;;;;;;;;;1.10;99.90;;;;;;5136462;27;20319;-39
2022/12/11 06:37:49;;;;;;;;;;;1.10;99.90;;;;;;5135429;27;19908;-40
2022/12/11 06:40:14;;;;;;;;;;;1.10;99.90;;;;;;5131854;27;19920;-42
2022/12/11 06:42:40;;;;;;;;;;;1.20;99.90;;;;;;5115278;28;20259;-42
2022/12/11 06:45:06;;;;;;;;;;;1.20;99.90;;;;;;5114876;28;20385;-39
2022/12/11 06:47:32;;;;;;;;;;;1.20;99.90;;;;;;5115448;28;19907;-41
2022/12/11 06:49:57;;;;;;;;;;;1.20;99.90;;;;;;5115342;28;19968;-39
2022/12/11 06:52:24;;;;;;;;;;;1.20;99.90;;;;;;5109702;28;19923;-40
2022/12/11 06:54:49;;;;;;;;;;;1.20;99.90;;;;;;5094701;28;20320;-39
2022/12/11 06:57:15;;;;;;;;;;;1.20;99.90;;;;;;5095887;28;20007;-38
2022/12/11 06:59:40;;;;;;;;;;;1.20;99.90;;;;;;5094094;28;19912;-41
2022/12/11 07:02:06;;;;;;;;;;;1.20;99.90;;;;;;5095789;28;19965;-39
2022/12/11 07:04:31;;;;;;;;;;;1.10;99.90;;;;;;5094824;28;20007;-40
2022/12/11 07:06:57;;;;;;;;;;;1.20;99.90;;;;;;5094950;28;20397;-39
2022/12/11 07:09:23;;;;;;;;;;;1.10;99.90;;;;;;5124141;27;19908;-39
2022/12/11 07:11:50;;;;;;;;;;;1.10;99.90;;;;;;5110944;27;20279;-41
2022/12/11 07:14:15;;;;;;;;;;;1.20;99.90;;;;;;5089812;28;19916;-39
2022/12/11 07:16:41;;;;;;;;;;;1.20;99.90;;;;;;5093769;28;19915;-40
2022/12/11 07:19:06;;;;;;;;;;;1.20;99.90;;;;;;5087367;28;20404;-41
2022/12/11 07:21:32;;;;;;;;;;;1.20;99.90;;;;;;5089218;28;19934;-39
2022/12/11 07:23:57;;;;;;;;;;;1.20;99.90;;;;;;5084147;28;21551;-43
2022/12/11 07:26:23;;;;;;;;;;;1.10;99.90;;;;;;5089827;28;19963;-38
2022/12/11 07:28:48;;;;;;;;;;;1.10;99.90;;;;;;5090663;28;19996;-42
2022/12/11 07:31:16;;;;;;;;;;;1.20;99.90;;;;;;5087147;28;19924;-39
2022/12/11 07:33:41;;;;;;;;;;;1.20;99.90;;;;;;5093964;28;19916;-40
2022/12/11 07:36:08;;;;;;;;;;;1.20;99.90;;;;;;5089012;28;19919;-39
2022/12/11 07:38:34;;;;;;;;;;;1.20;99.90;;;;;;5093134;28;19912;-39
2022/12/11 07:41:03;;;;;;;;;;;1.20;99.90;;;;;;5093322;28;19912;-39
2022/12/11 07:43:29;;;;;;;;;;;1.20;99.90;;;;;;5093991;28;19951;-42
2022/12/11 07:45:54;;;;;;;;;;;1.20;99.90;;;;;;5093528;28;19947;-39
2022/12/11 07:48:19;;;;;;;;;;;1.20;99.90;;;;;;5093227;28;19909;-39
2022/12/11 07:50:45;;;;;;;;;;;1.20;99.90;;;;;;5088907;28;19946;-40
2022/12/11 07:53:10;;;;;;;;;;;1.20;99.90;;;;;;5103570;28;19915;-39
2022/12/11 07:55:36;;;;;;;;;;;1.20;99.90;;;;;;5113479;28;20381;-39
2022/12/11 07:58:02;;;;;;;;;;;1.20;99.90;;;;;;5097721;28;19916;-39
2022/12/11 08:00:27;;;;;;;;;;;1.20;99.90;;;;;;5093772;28;19908;-40
2022/12/11 08:02:52;;;;;;;;;;;1.20;99.90;;;;;;5092918;28;19912;-41
2022/12/11 08:05:18;;;;;;;;;;;1.20;99.90;;;;;;5093596;28;19908;-44
2022/12/11 08:07:43;;;;;;;;;;;1.20;99.90;;;;;;5092736;28;19908;-39
2022/12/11 08:10:09;;;;;;;;;;;1.20;99.90;;;;;;5108422;28;19916;-40
2022/12/11 08:12:34;;;;;;;;;;;1.20;99.90;;;;;;5129914;27;20365;-38
2022/12/11 08:15:00;;;;;;;;;;;1.20;99.90;;;;;;5134327;27;20376;-38
2022/12/11 08:17:26;;;;;;;;;;;1.20;99.90;;;;;;5133756;27;19915;-40
2022/12/11 08:19:51;;;;;;;;;;;1.20;99.90;;;;;;5127374;27;19938;-40
2022/12/11 08:22:17;;;;;;;;;;;1.20;99.90;;;;;;5110935;28;20372;-40
2022/12/11 08:24:43;;;;;;;;;;;1.20;99.90;;;;;;5093336;28;20007;-39
2022/12/11 08:27:08;;;;;;;;;;;1.20;99.90;;;;;;5093267;28;20278;-42
2022/12/11 08:29:34;;;;;;;;;;;1.20;99.90;;;;;;5092377;28;19920;-40
2022/12/11 08:31:59;;;;;;;;;;;1.30;99.90;;;;;;5093133;28;20528;-41
2022/12/11 08:34:25;;;;;;;;;;;1.30;99.90;;;;;;5093142;28;20480;-40
2022/12/11 08:36:50;;;;;;;;;;;1.30;99.90;;;;;;5094821;28;19908;-41
2022/12/11 08:39:16;;;;;;;;;;;1.30;99.90;;;;;;5093643;28;19998;-40
2022/12/11 08:41:41;;;;;;;;;;;1.30;99.90;;;;;;5102907;28;19920;-40
2022/12/11 08:44:09;;;;;;;;;;;1.30;99.90;;;;;;5110429;28;19908;-40
2022/12/11 08:46:35;;;;;;;;;;;1.30;99.90;;;;;;5112763;28;19908;-39
2022/12/11 08:49:00;;;;;;;;;;;1.30;99.90;;;;;;5112498;28;19914;-40
2022/12/11 08:51:27;;;;;;;;;;;1.30;99.90;;;;;;5113532;27;19924;-40
2022/12/11 08:53:53;;;;;;;;;;;1.40;99.90;;;;;;5110708;28;19912;-39
2022/12/11 08:56:19;;;;;;;;;;;1.40;99.90;;;;;;5098337;28;19958;-41
2022/12/11 08:58:45;;;;;;;;;;;1.30;99.90;;;;;;5132923;27;19907;-41
2022/12/11 09:01:12;;;;;;;;;;;1.40;99.90;;;;;;5126458;27;19908;-40
2022/12/11 09:03:38;;;;;;;;;;;1.40;99.90;;;;;;5113083;28;19912;-39
2022/12/11 09:06:08;;;;;;;;;;;1.40;99.90;;;;;;5112341;28;19963;-39
2022/12/11 09:08:34;;;;;;;;;;;1.40;99.90;;;;;;5113076;28;19907;-40
2022/12/11 09:11:06;;;;;;;;;;;1.40;99.90;;;;;;5112602;28;19926;-39
2022/12/11 09:13:32;;;;;;;;;;;1.40;99.90;;;;;;5120978;28;19914;-39
2022/12/11 09:15:58;;;;;;;;;;;1.50;99.90;;;;;;5133699;28;19907;-40
2022/12/11 09:18:23;;;;;;;;;;;1.50;99.90;;;;;;5134352;27;20331;-39
2022/12/11 09:20:56;;;;;;;;;;;1.50;99.90;;;;;;5136947;27;19994;-41
2022/12/11 09:23:22;;;;;;;;;;;1.50;99.90;;;;;;5137795;27;19907;-40
2022/12/11 09:25:47;;;;;;;;;;;1.50;99.90;;;;;;5136806;27;19908;-41
2022/12/11 09:28:13;;;;;;;;;;;1.50;99.90;;;;;;5137725;27;20243;-43
2022/12/11 09:30:38;;;;;;;;;;;1.60;99.90;;;;;;5137584;27;19916;-43
2022/12/11 09:33:03;;;;;;;;;;;1.60;99.90;;;;;;5136611;27;19912;-39
2022/12/11 09:35:29;;;;;;;;;;;1.60;99.90;;;;;;5137592;27;19914;-39
2022/12/11 09:37:54;;;;;;;;;;;1.60;99.90;;;;;;5137388;27;19907;-39
2022/12/11 09:40:20;;;;;;;;;;;1.60;99.90;;;;;;5137514;27;19907;-39
2022/12/11 09:42:53;;;;;;;;;;;1.60;99.90;;;;;;5136731;27;19919;-39
2022/12/11 09:45:19;;;;;;;;;;;1.60;99.90;;;;;;5137859;27;19914;-44
2022/12/11 09:47:46;;;;;;;;;;;1.60;99.90;;;;;;5137291;27;19908;-40
2022/12/11 09:50:11;;;;;;;;;;;1.60;99.90;;;;;;5127799;27;20392;-41
2022/12/11 09:52:55;;;;;;;;;;;1.60;99.90;;;;;;5117407;28;19998;-42
2022/12/11 09:55:26;;;;;;;;;;;1.60;99.90;;;;;;5116804;28;19915;-39
2022/12/11 09:58:04;;;;;;;;;;;1.70;99.90;;;;;;5116191;28;20412;-40
2022/12/11 10:00:38;;;;;;;;;;;1.60;99.90;;;;;;5117151;28;19908;-40
2022/12/11 10:03:22;;;;;;;;;;;1.70;99.90;;;;;;5113724;28;20021;-39
2022/12/11 10:05:48;;;;;;;;;;;1.70;99.90;;;;;;5096456;28;19908;-39
2022/12/11 10:08:22;;;;;;;;;;;1.70;99.90;;;;;;5095906;28;19912;-39
2022/12/11 10:11:04;;;;;;;;;;;1.70;99.90;;;;;;5094136;28;19923;-39
2022/12/11 10:13:32;;;;;;;;;;;1.70;99.90;;;;;;5110784;28;19920;-42
2022/12/11 10:16:20;;;;;;;;;;;1.60;99.90;;;;;;5095854;28;19908;-39
2022/12/11 10:18:47;;;;;;;;;;;1.60;99.90;;;;;;5096242;28;19908;-40
2022/12/11 10:21:14;;;;;;;;;;;1.60;99.90;;;;;;5110322;28;19912;-42
2022/12/11 10:23:45;;;;;;;;;;;1.60;99.90;;;;;;5115704;28;20358;-40
2022/12/11 10:26:18;;;;;;;;;;;1.60;99.90;;;;;;5103232;28;19937;-39
2022/12/11 10:28:43;;;;;;;;;;;1.60;99.90;;;;;;5096494;28;19916;-40
2022/12/11 10:31:15;;;;;;;;;;;1.60;99.90;;;;;;5096819;28;19927;-39
2022/12/11 10:33:52;;;;;;;;;;;1.70;99.90;;;;;;5095719;28;20024;-42
2022/12/11 10:36:22;;;;;;;;;;;1.70;99.90;;;;;;5095657;28;20302;-41
2022/12/11 10:38:48;;;;;;;;;;;1.70;99.90;;;;;;5095805;28;19908;-40
2022/12/11 10:41:19;;;;;;;;;;;1.70;99.90;;;;;;5095852;28;19934;-40
2022/12/11 10:43:47;;;;;;;;;;;1.70;99.90;;;;;;5077429;28;20462;-44
2022/12/11 10:46:17;;;;;;;;;;;1.80;99.90;;;;;;5095837;28;19940;-40
2022/12/11 10:48:45;;;;;;;;;;;1.70;99.90;;;;;;5095862;28;19908;-40
2022/12/11 10:51:11;;;;;;;;;;;1.70;99.90;;;;;;5095193;28;19975;-44
2022/12/11 10:53:37;;;;;;;;;;;1.80;99.90;;;;;;5095916;28;20374;-40
2022/12/11 10:56:02;;;;;;;;;;;1.80;99.90;;;;;;5095842;28;20382;-41
2022/12/11 10:58:32;;;;;;;;;;;1.80;99.90;;;;;;5099441;28;19916;-41
2022/12/11 11:01:09;;;;;;;;;;;1.80;99.90;;;;;;5094715;28;19914;-39
2022/12/11 11:03:39;;;;;;;;;;;1.80;99.90;;;;;;5094865;28;19908;-41
2022/12/11 11:06:05;;;;;;;;;;;1.80;99.90;;;;;;5093934;28;19915;-39
2022/12/11 11:08:41;;;;;;;;;;;1.80;99.90;;;;;;5098358;28;19912;-41
2022/12/11 11:11:15;;;;;;;;;;;1.90;99.90;;;;;;5098009;28;20023;-39
2022/12/11 11:13:40;;;;;;;;;;;1.80;99.90;;;;;;5100434;27;19990;-40
2022/12/11 11:16:08;;;;;;;;;;;1.90;99.90;;;;;;5128601;27;19950;-40
2022/12/11 11:18:34;;;;;;;;;;;1.90;99.90;;;;;;5111247;27;19985;-41
2022/12/11 11:20:59;;;;;;;;;;;1.90;99.90;;;;;;5110538;28;20355;-41
2022/12/11 11:23:25;;;;;;;;;;;1.90;99.90;;;;;;5099055;28;19916;-39
2022/12/11 11:25:53;;;;;;;;;;;1.90;99.90;;;;;;5109949;28;19961;-41
2022/12/11 11:28:21;;;;;;;;;;;1.90;99.90;;;;;;5114177;28;20355;-40
2022/12/11 11:30:55;;;;;;;;;;;1.90;99.90;;;;;;5114250;28;20348;-40
2022/12/11 11:33:21;;;;;;;;;;;1.90;99.90;;;;;;5113700;28;19908;-39
2022/12/11 11:36:06;;;;;;;;;;;1.90;99.90;;;;;;5107937;27;19985;-41
2022/12/11 11:38:37;;;;;;;;;;;1.90;99.90;;;;;;5108498;28;19915;-40
2022/12/11 11:41:21;;;;;;;;;;;1.90;99.90;;;;;;5110986;27;19916;-40
2022/12/11 11:43:49;;;;;;;;;;;2.00;99.90;;;;;;5108991;28;19998;-40
2022/12/11 11:46:14;;;;;;;;;;;2.00;99.90;;;;;;5111155;28;19919;-42
2022/12/11 11:48:52;;;;;;;;;;;2.00;99.90;;;;;;5095937;27;19912;-43
2022/12/11 11:51:44;;;;;;;;;;;2.00;99.90;;;;;;5108487;28;20006;-40
2022/12/11 11:54:30;;;;;;;;;;;2.00;99.90;;;;;;5127221;27;19914;-40
2022/12/11 11:56:56;;;;;;;;;;;2.00;99.90;;;;;;5126700;27;19911;-40
2022/12/11 11:59:21;;;;;;;;;;;2.10;99.90;;;;;;5114224;28;19907;-39
2022/12/11 12:01:47;;;;;;;;;;;2.10;99.90;;;;;;5113295;28;19907;-43
2022/12/11 12:04:12;;;;;;;;;;;2.10;99.90;;;;;;5114090;28;19908;-40
2022/12/11 12:06:48;;;;;;;;;;;2.10;99.90;;;;;;5114056;28;19911;-40
2022/12/11 12:09:16;;;;;;;;;;;2.10;99.90;;;;;;5120966;27;19950;-40
2022/12/11 12:11:45;;;;;;;;;;;2.10;99.90;;;;;;5134067;27;20362;-40
2022/12/11 12:14:29;;;;;;;;;;;2.10;99.90;;;;;;5134275;27;20171;-40
2022/12/11 12:17:18;;;;;;;;;;;2.10;99.90;;;;;;5134400;27;19915;-40
2022/12/11 12:20:03;;;;;;;;;;;2.10;99.90;;;;;;5085037;27;19954;-39
2022/12/11 12:22:29;;;;;;;;;;;2.10;99.90;;;;;;5098558;28;19908;-45
2022/12/11 12:25:13;;;;;;;;;;;2.10;99.90;;;;;;5102408;28;19912;-40
2022/12/11 12:27:44;;;;;;;;;;;2.10;99.90;;;;;;5093671;28;19993;-39
2022/12/11 12:30:16;;;;;;;;;;;2.10;99.90;;;;;;5090053;28;19928;-40
2022/12/11 12:32:45;;;;;;;;;;;2.10;99.90;;;;;;5092419;28;19943;-41
2022/12/11 12:35:25;;;;;;;;;;;2.10;99.90;;;;;;5092997;28;19912;-40
2022/12/11 12:37:50;;;;;;;;;;;2.10;99.90;;;;;;5092563;28;20530;-41
2022/12/11 12:40:23;;;;;;;;;;;2.10;99.90;;;;;;5094759;28;20157;-41
2022/12/11 12:42:53;;;;;;;;;;;2.10;99.90;;;;;;5110250;28;19942;-45
2022/12/11 12:45:27;;;;;;;;;;;2.00;99.90;;;;;;5102197;28;19912;-40
2022/12/11 12:47:53;;;;;;;;;;;2.10;99.90;;;;;;5092907;28;19991;-40
2022/12/11 12:50:20;;;;;;;;;;;2.10;99.90;;;;;;5093914;28;20015;-41
2022/12/11 12:52:46;;;;;;;;;;;2.10;99.90;;;;;;5100289;28;19958;-40
2022/12/11 12:55:17;;;;;;;;;;;2.10;99.90;;;;;;5097018;28;20343;-41
2022/12/11 12:57:53;;;;;;;;;;;2.10;99.90;;;;;;5103852;28;19966;-41
2022/12/11 13:00:39;;;;;;;;;;;2.10;99.90;;;;;;5092828;28;20385;-40
2022/12/11 13:03:16;;;;;;;;;;;2.10;99.90;;;;;;5092473;28;19908;-40
2022/12/11 13:05:53;;;;;;;;;;;2.00;99.90;;;;;;5092059;28;19908;-40
2022/12/11 13:08:23;;;;;;;;;;;2.10;99.90;;;;;;5092983;28;19908;-39
2022/12/11 13:10:58;;;;;;;;;;;2.10;99.90;;;;;;5091704;28;19916;-44
2022/12/11 13:13:32;;;;;;;;;;;2.10;99.90;;;;;;5096947;28;20298;-41
2022/12/11 13:16:22;;;;;;;;;;;2.10;99.90;;;;;;5127095;28;19908;-40
2022/12/11 13:18:47;;;;;;;;;;;2.10;99.90;;;;;;5129001;28;19908;-41
2022/12/11 13:21:24;;;;;;;;;;;2.10;99.90;;;;;;5112582;28;19915;-40
2022/12/11 13:23:50;;;;;;;;;;;2.10;99.90;;;;;;5112852;28;20450;-40
2022/12/11 13:26:26;;;;;;;;;;;2.10;99.90;;;;;;5112092;28;19986;-41
2022/12/11 13:28:52;;;;;;;;;;;2.10;99.90;;;;;;5112800;28;19994;-40
2022/12/11 13:31:18;;;;;;;;;;;2.10;99.90;;;;;;5112543;28;20338;-40
2022/12/11 13:33:52;;;;;;;;;;;2.10;99.90;;;;;;5101154;28;19969;-40
2022/12/11 13:36:17;;;;;;;;;;;2.20;99.90;;;;;;5092522;28;19908;-40
2022/12/11 13:38:45;;;;;;;;;;;2.10;99.90;;;;;;5092545;28;19919;-40
2022/12/11 13:41:11;;;;;;;;;;;2.10;99.90;;;;;;5101233;28;20385;-43
2022/12/11 13:43:38;;;;;;;;;;;2.10;99.90;;;;;;5112867;28;19914;-40
2022/12/11 13:46:06;;;;;;;;;;;2.10;99.90;;;;;;5094109;28;19959;-41
2022/12/11 13:48:42;;;;;;;;;;;2.10;99.90;;;;;;5110152;28;19912;-39
2022/12/11 13:51:14;;;;;;;;;;;2.10;99.90;;;;;;5102762;28;19920;-41
2022/12/11 13:53:40;;;;;;;;;;;2.10;99.90;;;;;;5091698;28;19915;-40
2022/12/11 13:56:06;;;;;;;;;;;2.10;99.90;;;;;;5092277;28;19908;-41
2022/12/11 13:58:33;;;;;;;;;;;2.10;99.90;;;;;;5092184;28;19909;-40
2022/12/11 14:01:07;;;;;;;;;;;2.10;99.90;;;;;;5098962;28;20194;-39
2022/12/11 14:03:33;;;;;;;;;;;2.00;99.90;;;;;;5099328;28;20249;-39
2022/12/11 14:05:59;;;;;;;;;;;2.00;99.90;;;;;;5101464;28;20292;-40
2022/12/11 14:08:29;;;;;;;;;;;2.00;99.90;;;;;;5112318;28;20336;-40
2022/12/11 14:10:54;;;;;;;;;;;2.00;99.90;;;;;;5107554;28;19973;-39
2022/12/11 14:13:24;;;;;;;;;;;2.00;99.90;;;;;;5111347;28;19951;-39
2022/12/11 14:15:51;;;;;;;;;;;2.00;99.90;;;;;;5103901;28;19966;-41
2022/12/11 14:18:25;;;;;;;;;;;2.00;99.90;;;;;;5095935;28;19999;-40
2022/12/11 14:20:57;;;;;;;;;;;2.00;99.90;;;;;;5096896;28;19919;-39
2022/12/11 14:23:27;;;;;;;;;;;2.00;99.90;;;;;;5117027;27;19911;-44
2022/12/11 14:25:54;;;;;;;;;;;2.00;99.90;;;;;;5134693;27;19952;-42
2022/12/11 14:28:20;;;;;;;;;;;2.00;99.90;;;;;;5103134;27;20350;-41
2022/12/11 14:30:47;;;;;;;;;;;1.90;99.90;;;;;;5095240;28;19916;-40
2022/12/11 14:33:13;;;;;;;;;;;1.90;99.90;;;;;;5115140;28;19915;-42
2022/12/11 14:35:40;;;;;;;;;;;1.90;99.90;;;;;;5114988;28;20259;-40
2022/12/11 14:38:16;;;;;;;;;;;1.90;99.90;;;;;;5113639;28;19912;-42
2022/12/11 14:40:43;;;;;;;;;;;1.90;99.90;;;;;;5114894;28;19912;-40
2022/12/11 14:43:29;;;;;;;;;;;1.80;99.90;;;;;;5114223;28;20010;-39
2022/12/11 14:45:58;;;;;;;;;;;1.80;99.90;;;;;;5113466;28;20002;-41
2022/12/11 14:48:43;;;;;;;;;;;1.80;99.90;;;;;;5107226;28;19965;-40